Humbie, United Kingdom
Current Conditions -  °F | °C
As of 4:50 AM on Sunday 26 Oct 2014 (Local Time) from EGPH Reporting Station
Broken Clouds Broken Clouds  
Wind Chill: 54°   Ceiling: 4000
Heat Index: 54°   Visibility: 6mi
Dew Point: 45°   Wind: 28mph
Humidity: 72%   Direction: 240°WSW
Pressure: 29.65"   Gusts: NA
Location:  55.87°N, 2.88°W
Report Text: EGPH 260350Z 24024KT 9999 SCT027 BKN040 12/07 Q1004
Loading
Personal Weather Stations






























Interactive Weather Map
Tropical Storm Tracking
New forecast layout! Learn more

10-Day Weather Forecast

Advertisements
Track Severe Weather on mobile